Beaux Arts, Washington
Current Conditions -  °F | °C
As of 7:53 AM on Thursday 23 Oct 2014 (Local Time) from KBFI Reporting Station
Light Rain Light Rain  
Wind Chill: 54°   Ceiling: 7000
Heat Index: 54°   Visibility: 10mi
Dew Point: 48°   Wind: 13mph
Humidity: 80%   Direction: 150°SSE
Pressure: 29.74"   Gusts: 21mph
Location:  47.6186°N, 122.204°W
Report Text: KBFI 231453Z 15011G18KT 10SM -RA BKN070 OVC085 12/09 A2974 RMK AO2 SLP070 P0001 60004 T01220089 50010
Loading
Personal Weather Stations






























Interactive Weather Map
Tropical Storm Tracking
New forecast layout! Learn more

10-Day Weather Forecast

Advertisements
Track Severe Weather on mobile